createdAt,value
2018-03-15T00:00:19.384Z,21.50
2018-03-15T00:02:47.668Z,18.70
2018-03-15T00:05:15.148Z,19.67
2018-03-15T00:07:42.618Z,19.93
2018-03-15T00:10:11.193Z,18.47
2018-03-15T00:12:39.437Z,18.30
2018-03-15T00:15:06.906Z,16.03
2018-03-15T00:17:34.405Z,20.70
2018-03-15T00:20:01.884Z,20.60
2018-03-15T00:22:29.375Z,20.03
2018-03-15T00:24:58.380Z,22.90
2018-03-15T00:27:26.619Z,20.07
2018-03-15T00:29:54.108Z,18.20
2018-03-15T00:32:22.378Z,14.97
2018-03-15T00:34:49.856Z,19.70
2018-03-15T00:37:18.156Z,20.07
2018-03-15T00:39:45.721Z,19.47
2018-03-15T00:42:13.166Z,20.10
2018-03-15T00:44:40.639Z,19.33
2018-03-15T00:47:08.136Z,24.00
2018-03-15T00:49:36.388Z,19.60
2018-03-15T00:52:03.872Z,18.17
2018-03-15T00:54:31.738Z,17.00
2018-03-15T00:56:59.979Z,17.47
2018-03-15T00:59:27.454Z,20.60
2018-03-15T01:01:54.947Z,19.40
2018-03-15T01:04:22.426Z,14.87
2018-03-15T01:06:49.903Z,18.43
2018-03-15T01:09:17.395Z,17.70
2018-03-15T01:11:45.645Z,17.00
2018-03-15T01:14:13.223Z,20.53
2018-03-15T01:16:41.487Z,18.70
2018-03-15T01:19:08.962Z,19.47
2018-03-15T01:21:37.224Z,17.97
2018-03-15T01:24:04.739Z,16.27
2018-03-15T01:26:32.215Z,19.60
2018-03-15T01:28:59.750Z,21.30
2018-03-15T01:31:28.317Z,20.60
2018-03-15T01:33:55.804Z,24.43
2018-03-15T01:36:23.286Z,22.47
2018-03-15T01:38:50.888Z,22.33
2018-03-15T01:41:18.369Z,22.00
2018-03-15T01:43:45.842Z,22.33
2018-03-15T01:46:13.357Z,19.97
2018-03-15T01:48:40.831Z,22.13
2018-03-15T01:51:08.303Z,20.20
2018-03-15T01:53:35.804Z,21.57
2018-03-15T01:56:04.043Z,19.03
2018-03-15T01:58:31.513Z,19.97
2018-03-15T02:00:59.006Z,18.87
2018-03-15T02:03:26.492Z,19.60
2018-03-15T02:05:54.017Z,23.07
2018-03-15T02:08:21.517Z,19.80
2018-03-15T02:10:48.998Z,21.70
2018-03-15T02:13:17.244Z,19.03
2018-03-15T02:15:45.044Z,23.87
2018-03-15T02:18:13.297Z,18.40
2018-03-15T02:20:40.782Z,24.80
2018-03-15T02:23:08.543Z,21.97
2018-03-15T02:25:36.790Z,22.97
2018-03-15T02:28:04.261Z,22.37
2018-03-15T02:30:31.764Z,22.27
2018-03-15T02:32:59.239Z,22.70
2018-03-15T02:35:26.712Z,20.60
2018-03-15T02:37:54.838Z,17.13
2018-03-15T02:40:22.398Z,21.83
2018-03-15T02:42:49.876Z,23.53
2018-03-15T02:45:17.387Z,18.53
2018-03-15T02:47:45.619Z,22.03
2018-03-15T02:50:13.246Z,19.67
2018-03-15T02:52:41.080Z,19.53
2018-03-15T02:55:09.316Z,20.03
2018-03-15T02:57:36.788Z,23.10
2018-03-15T03:00:04.290Z,18.80
2018-03-15T03:02:31.759Z,27.13
2018-03-15T03:04:59.248Z,24.70
2018-03-15T03:07:26.768Z,18.70
2018-03-15T03:09:54.243Z,22.23
2018-03-15T03:12:21.718Z,22.53
2018-03-15T03:14:49.336Z,23.47
2018-03-15T03:17:16.815Z,21.90
2018-03-15T03:19:44.292Z,25.10
2018-03-15T03:22:11.781Z,25.47
2018-03-15T03:24:40.015Z,21.73
2018-03-15T03:27:07.486Z,25.77
2018-03-15T03:29:34.975Z,26.17
2018-03-15T03:32:02.549Z,27.13
2018-03-15T03:34:30.023Z,24.47
2018-03-15T03:36:57.515Z,22.57
2018-03-15T03:39:24.989Z,27.60
2018-03-15T03:41:53.290Z,22.27
2018-03-15T03:44:21.123Z,22.33
2018-03-15T03:46:49.359Z,21.53
2018-03-15T03:49:16.891Z,23.13
2018-03-15T03:51:44.387Z,21.83
2018-03-15T03:54:11.900Z,17.83
2018-03-15T03:56:39.375Z,19.10
2018-03-15T03:59:07.188Z,23.03
2018-03-15T04:01:35.827Z,25.53
2018-03-15T04:04:03.299Z,18.57
2018-03-15T04:06:30.795Z,19.27
2018-03-15T04:08:58.374Z,21.43
2018-03-15T04:11:25.851Z,21.80
2018-03-15T04:13:53.607Z,20.90
2018-03-15T04:16:21.088Z,24.80
2018-03-15T04:18:48.567Z,24.30
2018-03-15T04:21:16.880Z,20.20
2018-03-15T04:23:44.357Z,23.23
2018-03-15T04:26:11.894Z,22.53
2018-03-15T04:28:39.383Z,25.20
2018-03-15T04:31:06.855Z,25.67
2018-03-15T04:33:34.325Z,22.33
2018-03-15T04:36:02.590Z,20.57
2018-03-15T04:38:30.063Z,25.33
2018-03-15T04:40:58.299Z,27.13
2018-03-15T04:43:25.996Z,22.13
2018-03-15T04:45:54.231Z,20.43
2018-03-15T04:48:21.706Z,22.43
2018-03-15T04:50:49.243Z,19.07
2018-03-15T04:53:16.722Z,17.30
2018-03-15T04:55:44.191Z,20.77
2018-03-15T04:58:12.455Z,26.33
2018-03-15T05:00:39.919Z,16.83
2018-03-15T05:03:08.155Z,20.60
2018-03-15T05:05:35.643Z,23.80
2018-03-15T05:08:03.125Z,21.93
2018-03-15T05:10:30.592Z,18.90
2018-03-15T05:12:58.339Z,25.43
2018-03-15T05:15:26.574Z,21.20
2018-03-15T05:17:54.058Z,22.70
2018-03-15T05:20:22.623Z,20.10
2018-03-15T05:22:50.859Z,22.70
2018-03-15T05:25:18.405Z,22.00
2018-03-15T05:27:45.902Z,26.20
2018-03-15T05:30:13.378Z,18.67
2018-03-15T05:32:41.639Z,18.33
2018-03-15T05:35:09.131Z,21.47
2018-03-15T05:37:36.704Z,20.37
2018-03-15T05:40:04.179Z,18.50
2018-03-15T05:42:31.683Z,21.83
2018-03-15T05:44:59.931Z,21.30
2018-03-15T05:47:27.401Z,24.73
2018-03-15T05:49:54.886Z,20.40
2018-03-15T05:52:22.367Z,23.73
2018-03-15T05:54:49.834Z,23.73
2018-03-15T05:57:17.331Z,24.03
2018-03-15T05:59:45.571Z,25.50
2018-03-15T06:02:13.103Z,23.00
2018-03-15T06:04:40.595Z,19.80
2018-03-15T06:07:08.116Z,20.83
2018-03-15T06:09:35.615Z,21.10
2018-03-15T06:12:03.108Z,22.37
2018-03-15T06:14:30.583Z,23.83
2018-03-15T06:16:58.067Z,18.57
2018-03-15T06:19:25.559Z,19.47
2018-03-15T06:21:53.795Z,24.67
2018-03-15T06:24:21.263Z,22.87
2018-03-15T06:26:48.763Z,21.60
2018-03-15T06:29:17.006Z,21.30
2018-03-15T06:31:44.478Z,23.60
2018-03-15T06:34:11.977Z,27.47
2018-03-15T06:36:39.442Z,23.03
2018-03-15T06:39:06.911Z,23.20
2018-03-15T06:41:34.414Z,19.90
2018-03-15T06:44:01.896Z,23.43
2018-03-15T06:46:30.135Z,21.83
2018-03-15T06:48:57.630Z,23.13
2018-03-15T06:51:25.103Z,19.17
2018-03-15T06:53:52.571Z,20.33
2018-03-15T06:56:20.067Z,26.70
2018-03-15T06:58:47.539Z,25.27
2018-03-15T07:01:15.007Z,22.80
2018-03-15T07:03:43.274Z,17.43
2018-03-15T07:06:11.511Z,19.60
2018-03-15T07:08:38.996Z,20.27
2018-03-15T07:11:06.483Z,25.40
2018-03-15T07:13:33.951Z,24.00
2018-03-15T07:16:01.438Z,23.00
2018-03-15T07:18:28.915Z,21.33
2018-03-15T07:20:56.387Z,22.97
2018-03-15T07:23:24.643Z,19.70
2018-03-15T07:25:52.111Z,22.27
2018-03-15T07:28:19.612Z,25.07
2018-03-15T07:30:47.163Z,21.87
2018-03-15T07:33:14.631Z,23.17
2018-03-15T07:35:42.123Z,24.77
2018-03-15T07:38:09.595Z,18.63
2018-03-15T07:40:37.870Z,22.20
2018-03-15T07:43:06.107Z,21.27
2018-03-15T07:45:33.584Z,19.23
2018-03-15T07:48:01.067Z,18.00
2018-03-15T07:50:28.534Z,23.27
2018-03-15T07:52:56.030Z,23.07
2018-03-15T07:55:23.503Z,17.23
2018-03-15T07:57:50.971Z,18.37
2018-03-15T08:00:18.471Z,18.47
2018-03-15T08:02:45.939Z,22.53
2018-03-15T08:05:13.435Z,18.90
2018-03-15T08:07:40.907Z,20.93
2018-03-15T08:10:09.470Z,19.37
2018-03-15T08:12:36.958Z,19.20
2018-03-15T08:15:04.428Z,23.90
2018-03-15T08:17:31.931Z,20.97
2018-03-15T08:19:59.405Z,21.33
2018-03-15T08:22:26.877Z,20.47
2018-03-15T08:24:55.128Z,15.70
2018-03-15T08:27:22.600Z,20.27
2018-03-15T08:29:50.095Z,20.10
2018-03-15T08:32:17.591Z,23.67
2018-03-15T08:34:45.159Z,19.73
2018-03-15T08:37:12.846Z,21.80
2018-03-15T08:39:41.089Z,20.33
2018-03-15T08:42:09.143Z,21.60
2018-03-15T08:44:36.616Z,17.87
2018-03-15T08:47:04.102Z,19.80
2018-03-15T08:49:31.583Z,22.23
2018-03-15T08:51:59.059Z,22.33
2018-03-15T08:54:26.559Z,20.63
2018-03-15T08:56:54.826Z,17.23
2018-03-15T08:59:22.279Z,19.17
2018-03-15T09:01:49.767Z,19.23
2018-03-15T09:04:17.238Z,20.90
2018-03-15T09:06:44.758Z,20.50
2018-03-15T09:09:13.040Z,19.33
2018-03-15T09:11:41.999Z,19.87
2018-03-15T09:14:09.492Z,19.33
2018-03-15T09:16:37.731Z,19.93
2018-03-15T09:19:05.243Z,22.73
2018-03-15T09:21:32.723Z,24.23
2018-03-15T09:24:00.191Z,20.67
2018-03-15T09:26:27.686Z,19.33
2018-03-15T09:28:56.310Z,24.90
2018-03-15T09:31:23.818Z,19.33
2018-03-15T09:33:51.311Z,20.93
2018-03-15T09:36:18.801Z,17.87
2018-03-15T09:38:46.299Z,18.30
2018-03-15T09:41:13.787Z,20.10
2018-03-15T09:43:41.298Z,17.37
2018-03-15T09:46:08.805Z,21.67
2018-03-15T09:48:36.267Z,23.13
2018-03-15T09:51:03.771Z,21.80
2018-03-15T09:53:31.256Z,23.87
2018-03-15T09:55:58.777Z,18.93
2018-03-15T09:58:27.031Z,18.93
2018-03-15T10:00:55.314Z,20.27
2018-03-15T10:03:23.595Z,19.63
2018-03-15T10:05:51.869Z,19.80
2018-03-15T10:08:19.358Z,22.30
2018-03-15T10:10:46.849Z,19.80
2018-03-15T10:13:14.355Z,22.50
2018-03-15T10:15:41.842Z,21.30
2018-03-15T10:18:09.354Z,17.87
2018-03-15T10:20:37.604Z,19.73
2018-03-15T10:23:05.095Z,22.27
2018-03-15T10:25:32.608Z,19.57
2018-03-15T10:28:00.915Z,20.97
2018-03-15T10:30:29.189Z,19.63
2018-03-15T10:33:03.197Z,18.90
2018-03-15T10:35:31.474Z,20.77
2018-03-15T10:37:59.754Z,19.63
2018-03-15T10:40:28.007Z,19.47
2018-03-15T10:42:55.523Z,17.57
2018-03-15T10:45:23.019Z,18.30
2018-03-15T10:47:50.531Z,20.53
2018-03-15T10:50:18.028Z,18.20
2018-03-15T10:52:45.515Z,15.57
2018-03-15T10:55:13.023Z,18.70
2018-03-15T10:57:40.510Z,21.03
2018-03-15T11:00:08.792Z,17.13
2018-03-15T11:02:42.687Z,17.00
2018-03-15T11:05:15.919Z,19.87
2018-03-15T11:10:43.466Z,17.10
2018-03-15T11:13:11.719Z,18.57
2018-03-15T11:15:39.214Z,19.80
2018-03-15T11:18:06.768Z,17.83
2018-03-15T11:20:34.203Z,16.77
2018-03-15T11:23:02.474Z,17.00
2018-03-15T11:25:29.963Z,13.07
2018-03-15T11:27:57.482Z,16.50
2018-03-15T11:30:24.974Z,17.53
2018-03-15T11:32:52.459Z,19.27
2018-03-15T11:35:19.962Z,18.07
2018-03-15T11:37:48.215Z,17.63
2018-03-15T11:40:15.722Z,19.77
2018-03-15T11:42:43.212Z,17.10
2018-03-15T11:45:10.721Z,14.50
2018-03-15T11:47:38.207Z,18.17
2018-03-15T11:50:05.699Z,17.93
2018-03-15T11:52:33.243Z,16.50
2018-03-15T11:55:00.734Z,10.00
2018-03-15T11:57:29.003Z,15.80
2018-03-15T11:59:57.254Z,16.70
2018-03-15T12:02:24.754Z,18.73
2018-03-15T12:04:52.239Z,17.63
2018-03-15T12:07:19.746Z,16.93
2018-03-15T12:09:48.047Z,18.27
2018-03-15T12:12:15.535Z,18.03
2018-03-15T12:14:43.071Z,18.17
2018-03-15T12:17:10.588Z,14.07
2018-03-15T12:19:38.082Z,16.97
2018-03-15T12:22:05.563Z,13.47
2018-03-15T12:24:33.027Z,16.10
2018-03-15T12:27:00.515Z,15.23
2018-03-15T12:29:27.979Z,18.23
2018-03-15T12:31:55.467Z,14.80
2018-03-15T12:34:22.961Z,18.43
2018-03-15T12:36:50.451Z,15.83
2018-03-15T12:39:17.936Z,15.40
2018-03-15T12:41:45.406Z,16.63
2018-03-15T12:44:12.933Z,16.07
2018-03-15T12:46:40.388Z,16.73
2018-03-15T12:49:08.693Z,17.57
2018-03-15T12:51:36.159Z,14.53
2018-03-15T12:54:03.653Z,15.50
2018-03-15T12:56:31.122Z,14.93
2018-03-15T12:58:58.659Z,16.47
2018-03-15T13:01:26.142Z,16.87
2018-03-15T13:03:53.607Z,14.43
2018-03-15T13:06:21.107Z,14.37
2018-03-15T13:08:49.334Z,13.10
2018-03-15T13:11:16.822Z,17.60
2018-03-15T13:13:45.059Z,15.77
2018-03-15T13:16:12.531Z,19.23
2018-03-15T13:18:40.019Z,17.80
2018-03-15T13:21:08.248Z,16.03
2018-03-15T13:23:35.736Z,19.17
2018-03-15T13:26:03.980Z,15.27
2018-03-15T13:28:31.541Z,16.87
2018-03-15T13:30:59.007Z,15.10
2018-03-15T13:33:26.475Z,17.30
2018-03-15T13:35:53.975Z,15.53
2018-03-15T13:38:22.232Z,16.03
2018-03-15T13:40:49.719Z,16.00
2018-03-15T13:43:17.200Z,14.47
2018-03-15T13:45:44.708Z,13.97
2018-03-15T13:48:12.947Z,13.63
2018-03-15T13:50:40.432Z,16.63
2018-03-15T13:53:07.931Z,18.00
2018-03-15T13:55:35.399Z,14.63
2018-03-15T13:58:02.898Z,10.03
2018-03-15T14:00:30.373Z,14.97
2018-03-15T14:02:58.631Z,12.20
2018-03-15T14:05:26.875Z,14.53
2018-03-15T14:07:54.343Z,15.30
2018-03-15T14:10:21.872Z,13.30
2018-03-15T14:12:49.315Z,15.67
2018-03-15T14:15:16.807Z,15.93
2018-03-15T14:17:44.276Z,13.73
2018-03-15T14:20:12.520Z,15.23
2018-03-15T14:22:40.007Z,13.43
2018-03-15T14:25:07.518Z,12.87
2018-03-15T14:27:35.027Z,15.27
2018-03-15T14:30:03.283Z,16.30
2018-03-15T14:32:30.756Z,14.07
2018-03-15T14:34:58.280Z,15.90
2018-03-15T14:37:25.735Z,14.27
2018-03-15T14:39:53.232Z,12.97
2018-03-15T14:42:21.471Z,13.23
2018-03-15T14:44:48.958Z,11.90
2018-03-15T14:47:16.443Z,10.97
2018-03-15T14:49:43.922Z,10.10
2018-03-15T14:52:11.415Z,14.30
2018-03-15T14:54:40.395Z,15.57
2018-03-15T14:57:07.872Z,15.33
2018-03-15T14:59:35.351Z,13.60
2018-03-15T15:02:02.826Z,13.73
2018-03-15T15:04:30.326Z,14.80
2018-03-15T15:06:57.791Z,13.77
2018-03-15T15:09:25.280Z,14.17
2018-03-15T15:11:52.954Z,13.00
2018-03-15T15:14:21.343Z,14.60
2018-03-15T15:16:48.843Z,11.60
2018-03-15T15:19:16.312Z,13.07
2018-03-15T15:21:44.562Z,12.83
2018-03-15T15:24:12.043Z,14.03
2018-03-15T15:26:40.296Z,12.80
2018-03-15T15:29:07.787Z,14.33
2018-03-15T15:31:35.255Z,11.43
2018-03-15T15:34:02.748Z,14.07
2018-03-15T15:36:30.219Z,13.97
2018-03-15T15:38:57.728Z,13.80
2018-03-15T15:41:25.219Z,11.27
2018-03-15T15:43:52.696Z,11.50
2018-03-15T15:46:20.183Z,10.67
2018-03-15T15:48:47.655Z,12.30
2018-03-15T15:51:15.147Z,13.10
2018-03-15T15:53:42.615Z,11.23
2018-03-15T15:56:10.103Z,10.27
2018-03-15T15:58:38.412Z,11.13
2018-03-15T16:01:05.907Z,10.77
2018-03-15T16:03:33.387Z,13.17
2018-03-15T16:06:01.682Z,11.47
2018-03-15T16:08:29.135Z,9.60
2018-03-15T16:10:56.600Z,12.87
2018-03-15T16:13:24.091Z,11.63
2018-03-15T16:15:51.604Z,15.27
2018-03-15T16:18:19.065Z,10.67
2018-03-15T16:20:46.547Z,11.40
2018-03-15T16:23:14.028Z,12.03
2018-03-15T16:25:41.511Z,13.33
2018-03-15T16:28:09.747Z,10.70
2018-03-15T16:30:37.242Z,12.17
2018-03-15T16:33:05.480Z,15.37
2018-03-15T16:35:32.951Z,13.40
2018-03-15T16:38:00.439Z,13.10
2018-03-15T16:40:28.676Z,17.03
2018-03-15T16:42:56.154Z,14.73
2018-03-15T16:45:24.391Z,16.80
2018-03-15T16:47:51.883Z,16.50
2018-03-15T16:50:20.121Z,18.43
2018-03-15T16:52:47.612Z,19.77
2018-03-15T16:55:15.247Z,22.73
2018-03-15T16:57:42.732Z,36.10
2018-03-15T17:00:10.231Z,28.47
2018-03-15T17:02:38.483Z,29.13
2018-03-15T17:05:05.975Z,34.43
2018-03-15T17:07:33.447Z,30.17
2018-03-15T17:10:00.919Z,31.37
2018-03-15T17:12:28.418Z,25.50
2018-03-15T17:14:55.902Z,20.97
2018-03-15T17:17:24.279Z,24.70
2018-03-15T17:19:51.754Z,18.57
2018-03-15T17:22:19.248Z,17.57
2018-03-15T17:24:46.787Z,25.13
2018-03-15T17:27:14.228Z,28.03
2018-03-15T17:29:41.715Z,27.20
2018-03-15T17:32:09.191Z,22.20
2018-03-15T17:34:37.448Z,25.13
2018-03-15T17:37:04.979Z,23.07
2018-03-15T17:39:32.480Z,23.07
2018-03-15T17:42:00.719Z,25.50
2018-03-15T17:44:28.532Z,20.93
2018-03-15T17:46:56.787Z,23.23
2018-03-15T17:49:25.763Z,27.93
2018-03-15T17:51:53.247Z,23.53
2018-03-15T17:54:21.483Z,25.80
2018-03-15T17:56:48.974Z,20.73
2018-03-15T17:59:16.443Z,21.50
2018-03-15T18:01:44.736Z,21.97
2018-03-15T18:04:13.007Z,19.50
2018-03-15T18:06:40.479Z,23.93
2018-03-15T18:09:09.072Z,22.90
2018-03-15T18:11:36.549Z,20.23
2018-03-15T18:14:07.152Z,16.70
2018-03-15T18:16:34.638Z,18.33
2018-03-15T18:19:02.108Z,18.57
2018-03-15T18:21:29.998Z,24.20
2018-03-15T18:23:57.471Z,18.50
2018-03-15T18:26:25.307Z,23.43
2018-03-15T18:28:52.807Z,25.83
2018-03-15T18:31:21.083Z,22.50
2018-03-15T18:33:49.321Z,21.60
2018-03-15T18:36:16.797Z,20.80
2018-03-15T18:38:44.389Z,22.60
2018-03-15T18:41:11.863Z,21.27
2018-03-15T18:43:39.357Z,18.30
2018-03-15T18:46:06.823Z,18.47
2018-03-15T18:48:34.638Z,18.47
2018-03-15T18:51:02.114Z,23.40
2018-03-15T18:53:29.586Z,25.67
2018-03-15T18:55:57.067Z,19.93
2018-03-15T18:58:24.535Z,23.67
2018-03-15T19:00:52.795Z,23.20
2018-03-15T19:03:20.262Z,20.37
2018-03-15T19:05:48.841Z,25.90
2018-03-15T19:08:17.075Z,20.33
2018-03-15T19:10:44.544Z,24.70
2018-03-15T19:13:12.032Z,25.53
2018-03-15T19:15:40.293Z,22.53
2018-03-15T19:18:08.564Z,26.43
2018-03-15T19:20:36.044Z,21.73
2018-03-15T19:23:04.283Z,21.87
2018-03-15T19:25:31.780Z,23.57
2018-03-15T19:27:59.285Z,22.90
2018-03-15T19:30:26.800Z,21.33
2018-03-15T19:32:54.317Z,26.67
2018-03-15T19:35:21.802Z,23.97
2018-03-15T19:37:49.314Z,23.97
2018-03-15T19:40:16.800Z,25.67
2018-03-15T19:42:45.084Z,26.20
2018-03-15T19:45:13.367Z,24.73
2018-03-15T19:47:40.822Z,25.83
2018-03-15T19:50:08.311Z,22.40
2018-03-15T19:52:35.785Z,27.13
2018-03-15T19:55:03.305Z,24.03
2018-03-15T19:57:30.784Z,22.40
2018-03-15T19:59:58.259Z,23.43
2018-03-15T20:02:25.755Z,26.33
2018-03-15T20:04:53.251Z,24.60
2018-03-15T20:07:20.770Z,26.03
2018-03-15T20:09:49.058Z,32.03
2018-03-15T20:12:16.539Z,25.77
2018-03-15T20:14:44.078Z,23.07
2018-03-15T20:17:11.563Z,30.97
2018-03-15T20:19:39.068Z,25.27
2018-03-15T20:22:07.303Z,23.63
2018-03-15T20:24:34.795Z,30.87
2018-03-15T20:27:03.038Z,27.67
2018-03-15T20:29:30.535Z,23.60
2018-03-15T20:31:58.782Z,30.17
2018-03-15T20:34:26.264Z,25.73
2018-03-15T20:36:54.527Z,30.80
2018-03-15T20:39:28.438Z,31.63
2018-03-15T20:41:56.699Z,32.17
2018-03-15T20:44:24.166Z,30.20
2018-03-15T20:46:58.335Z,29.43
2018-03-15T20:49:25.787Z,28.17
2018-03-15T20:51:53.261Z,29.23
2018-03-15T20:54:20.750Z,31.90
2018-03-15T20:56:48.989Z,34.20
2018-03-15T20:59:16.461Z,32.73
2018-03-15T21:01:43.963Z,34.57
2018-03-15T21:04:11.443Z,33.30
2018-03-15T21:06:38.917Z,32.07
2018-03-15T21:09:06.403Z,32.13
2018-03-15T21:11:34.638Z,35.27
2018-03-15T21:14:02.106Z,31.67
2018-03-15T21:16:29.591Z,34.20
2018-03-15T21:18:57.843Z,28.63
2018-03-15T21:21:25.315Z,36.27
2018-03-15T21:23:53.571Z,34.23
2018-03-15T21:26:21.038Z,34.07
2018-03-15T21:28:49.295Z,29.97
2018-03-15T21:31:16.767Z,33.97
2018-03-15T21:33:44.998Z,31.87
2018-03-15T21:36:12.507Z,32.13
2018-03-15T21:38:40.738Z,32.30
2018-03-15T21:41:08.247Z,36.17
2018-03-15T21:43:36.539Z,31.27
2018-03-15T21:46:04.013Z,32.63
2018-03-15T21:48:31.515Z,34.00
2018-03-15T21:50:58.992Z,35.43
2018-03-15T21:53:26.539Z,32.30
2018-03-15T21:55:54.779Z,32.97
2018-03-15T21:58:22.243Z,30.43
2018-03-15T22:00:49.735Z,37.27
2018-03-15T22:03:18.000Z,35.67
2018-03-15T22:05:46.261Z,33.47
2018-03-15T22:08:13.739Z,30.67
2018-03-15T22:10:41.980Z,34.10
2018-03-15T22:13:09.478Z,34.73
2018-03-15T22:15:36.948Z,37.87
2018-03-15T22:18:04.779Z,34.23
2018-03-15T22:20:33.024Z,33.40
2018-03-15T22:23:00.497Z,34.67
2018-03-15T22:25:27.988Z,35.43
2018-03-15T22:27:55.463Z,35.50
2018-03-15T22:30:22.960Z,34.80
2018-03-15T22:32:50.433Z,35.13
2018-03-15T22:35:18.679Z,36.07
2018-03-15T22:37:46.191Z,35.77
2018-03-15T22:40:13.695Z,34.33
2018-03-15T22:42:41.187Z,31.50
2018-03-15T22:45:09.419Z,34.27
2018-03-15T22:47:36.891Z,32.10
2018-03-15T22:50:04.500Z,35.97
2018-03-15T22:52:31.971Z,34.47
2018-03-15T22:54:59.488Z,30.50
2018-03-15T22:57:27.728Z,33.43
2018-03-15T22:59:55.202Z,33.23
2018-03-15T23:02:23.455Z,34.70
2018-03-15T23:04:50.933Z,34.37
2018-03-15T23:07:19.191Z,35.50
2018-03-15T23:09:47.443Z,37.13
2018-03-15T23:12:14.911Z,33.97
2018-03-15T23:14:42.396Z,35.17
2018-03-15T23:17:10.663Z,32.77
2018-03-15T23:19:38.982Z,40.07
2018-03-15T23:22:06.455Z,34.67
2018-03-15T23:24:33.926Z,36.50
2018-03-15T23:27:01.423Z,38.43
2018-03-15T23:29:29.660Z,45.00
2018-03-15T23:31:57.196Z,39.80
2018-03-15T23:34:24.651Z,41.83
2018-03-15T23:36:52.118Z,42.80
2018-03-15T23:39:19.609Z,48.90
2018-03-15T23:41:47.086Z,43.57
2018-03-15T23:44:14.595Z,42.30
2018-03-15T23:46:42.063Z,42.20
2018-03-15T23:49:09.526Z,43.53
2018-03-15T23:51:37.022Z,47.50
2018-03-15T23:54:04.497Z,42.37
2018-03-15T23:56:31.987Z,43.63
2018-03-15T23:58:59.470Z,45.27
